
Distance (Route):
Temperature : -34.9°C
Humidity : 0%
Pressure : 4.3hPa| Receiver | Frames | First received | Last received |
|---|---|---|---|
| AA1-15 | 208 | 2026-09-05 00:19:46 | 2026-09-05 01:05:57 |
| Receiver | Date | Latitude | Longitude | Direction | Speed | Altitude | Climb | Temperature | Humidity | Pressure | Voltage | Killtimer | Uptime | BKT | XDATA |
|---|---|---|---|---|---|---|---|---|---|---|---|---|---|---|---|
| AA1-15 | 2026-09-05 01:05:57 | 53.72732 | 23.76953 | 0° | 0km/h | 159087m | 0m/s | -34.9°C | 0% | 4.3hPa | 2.4V | 00:00:00 | 00:00:00 | 00:00:00 | |
| AA1-15 | 2026-09-05 01:05:41 | 53.72732 | 23.76953 | 0° | 0km/h | 159087m | 0m/s | -31.3°C | 0% | 2.7hPa | 2.4V | 00:00:00 | 00:00:00 | 00:00:00 | |
| AA1-15 | 2026-09-05 01:05:23 | 53.72732 | 23.76953 | 0° | 0km/h | 159087m | 0m/s | -33.1°C | 0% | 1.7hPa | 2.4V | 00:00:00 | 00:00:00 | 00:00:00 | |
| AA1-15 | 2026-09-05 01:05:11 | 53.72732 | 23.76953 | 0° | 0km/h | 159087m | 0m/s | -33.4°C | 0% | 1.7hPa | 2.4V | 00:00:00 | 00:00:00 | 00:00:00 | |
| AA1-15 | 2026-09-05 01:05:01 | 53.72732 | 23.76953 | 0° | 0km/h | 159087m | 0m/s | -33.5°C | 0% | 1.8hPa | 2.4V | 00:00:00 | 00:00:00 | 00:00:00 | |
| AA1-15 | 2026-09-05 01:04:47 | 53.72732 | 23.76953 | 0° | 0km/h | 159087m | 0m/s | -33.5°C | 0% | 1.8hPa | 2.4V | 00:00:00 | 00:00:00 | 00:00:00 | |
| AA1-15 | 2026-09-05 01:04:36 | 53.72732 | 23.76953 | 0° | 0km/h | 159087m | 0m/s | -33.4°C | 0% | 1.9hPa | 2.4V | 00:00:00 | 00:00:00 | 00:00:00 | |
| AA1-15 | 2026-09-05 01:04:26 | 53.72732 | 23.76953 | 0° | 0km/h | 159087m | 0m/s | -33.4°C | 0% | 1.9hPa | 2.4V | 00:00:00 | 00:00:00 | 00:00:00 | |
| AA1-15 | 2026-09-05 01:04:15 | 53.72732 | 23.76953 | 0° | 0km/h | 159087m | 0m/s | -33.8°C | 0% | 2hPa | 2.4V | 00:00:00 | 00:00:00 | 00:00:00 | |
| AA1-15 | 2026-09-05 01:04:00 | 53.72732 | 23.76953 | 0° | 0km/h | 159087m | 0m/s | -33.6°C | 0% | 2hPa | 2.4V | 00:00:00 | 00:00:00 | 00:00:00 | |
| AA1-15 | 2026-09-05 01:03:41 | 53.72732 | 23.76953 | 0° | 0km/h | 159087m | 0m/s | -33.7°C | 0% | 2.1hPa | 2.4V | 00:00:00 | 00:00:00 | 00:00:00 | |
| AA1-15 | 2026-09-05 01:03:31 | 53.72732 | 23.76953 | 0° | 0km/h | 159087m | 0m/s | -33.9°C | 0% | 2.2hPa | 2.4V | 00:00:00 | 00:00:00 | 00:00:00 | |
| AA1-15 | 2026-09-05 01:03:20 | 53.72732 | 23.76953 | 0° | 0km/h | 159087m | 0m/s | -34.3°C | 0% | 2.2hPa | 2.4V | 00:00:00 | 00:00:00 | 00:00:00 | |
| AA1-15 | 2026-09-05 01:03:10 | 53.72732 | 23.76953 | 0° | 0km/h | 159087m | 0m/s | -34.4°C | 0% | 2.2hPa | 2.4V | 00:00:00 | 00:00:00 | 00:00:00 | |
| AA1-15 | 2026-09-05 01:02:57 | 53.72732 | 23.76953 | 0° | 0km/h | 159087m | 0m/s | -34.5°C | 0% | 2.3hPa | 2.4V | 00:00:00 | 00:00:00 | 00:00:00 | |
| AA1-15 | 2026-09-05 01:02:44 | 53.72732 | 23.76953 | 0° | 0km/h | 159087m | 0m/s | -34.4°C | 0% | 2.4hPa | 2.4V | 00:00:00 | 00:00:00 | 00:00:00 | |
| AA1-15 | 2026-09-05 01:02:24 | 53.72732 | 23.76953 | 0° | 0km/h | 159087m | 0m/s | -35°C | 0% | 2.4hPa | 2.4V | 00:00:00 | 00:00:00 | 00:00:00 | |
| AA1-15 | 2026-09-05 01:01:49 | 53.72732 | 23.76953 | 0° | 0km/h | 159087m | 0m/s | -35°C | 0% | 2.6hPa | 2.4V | 00:00:00 | 00:00:00 | 00:00:00 | |
| AA1-15 | 2026-09-05 01:01:35 | 53.72732 | 23.76953 | 0° | 0km/h | 159087m | 0m/s | -35.4°C | 0% | 2.7hPa | 2.4V | 00:00:00 | 00:00:00 | 00:00:00 | |
| AA1-15 | 2026-09-05 01:01:16 | 53.72732 | 23.76953 | 0° | 0km/h | 159087m | 0m/s | -35.8°C | 0% | 2.8hPa | 2.4V | 00:00:00 | 00:00:00 | 00:00:00 | |
| AA1-15 | 2026-09-05 00:59:56 | 53.72732 | 23.76953 | 0° | 0km/h | 159087m | 0m/s | -36°C | 0% | 3.1hPa | 2.2V | 00:00:00 | 00:00:00 | 00:00:00 | |
| AA1-15 | 2026-09-05 00:59:46 | 53.72732 | 23.76953 | 0° | 0km/h | 159087m | 0m/s | -36.2°C | 0% | 3.2hPa | 2.2V | 00:00:00 | 00:00:00 | 00:00:00 | |
| AA1-15 | 2026-09-05 00:59:35 | 53.72732 | 23.76953 | 0° | 0km/h | 159087m | 0m/s | -36.1°C | 0% | 3.2hPa | 2.2V | 00:00:00 | 00:00:00 | 00:00:00 | |
| AA1-15 | 2026-09-05 00:59:24 | 53.72732 | 23.76953 | 0° | 0km/h | 159087m | 0m/s | -36.1°C | 0% | 3.3hPa | 2.2V | 00:00:00 | 00:00:00 | 00:00:00 | |
| AA1-15 | 2026-09-05 00:59:14 | 53.72732 | 23.76953 | 0° | 0km/h | 159087m | 0m/s | -36.3°C | 0% | 3.4hPa | 2.2V | 00:00:00 | 00:00:00 | 00:00:00 | |
| AA1-15 | 2026-09-05 00:59:03 | 53.72732 | 23.76953 | 0° | 0km/h | 159087m | 0m/s | -36.4°C | 0% | 3.4hPa | 2.2V | 00:00:00 | 00:00:00 | 00:00:00 | |
| AA1-15 | 2026-09-05 00:58:50 | 53.72732 | 23.76953 | 0° | 0km/h | 159087m | 0m/s | -36.6°C | 0% | 3.5hPa | 2.2V | 00:00:00 | 00:00:00 | 00:00:00 | |
| AA1-15 | 2026-09-05 00:58:38 | 53.72732 | 23.76953 | 0° | 0km/h | 159087m | 0m/s | -36.6°C | 0% | 3.6hPa | 2.2V | 00:00:00 | 00:00:00 | 00:00:00 | |
| AA1-15 | 2026-09-05 00:58:24 | 53.72732 | 23.76953 | 0° | 0km/h | 159087m | 0m/s | -36.8°C | 0% | 3.7hPa | 2.2V | 00:00:00 | 00:00:00 | 00:00:00 | |
| AA1-15 | 2026-09-05 00:58:12 | 53.72732 | 23.76953 | 0° | 0km/h | 159087m | 0m/s | -37°C | 0% | 3.8hPa | 2.2V | 00:00:00 | 00:00:00 | 00:00:00 | |
| AA1-15 | 2026-09-05 00:58:00 | 53.72732 | 23.76953 | 0° | 0km/h | 159087m | 0m/s | -37.1°C | 0% | 3.8hPa | 2.2V | 00:00:00 | 00:00:00 | 00:00:00 | |
| AA1-15 | 2026-09-05 00:57:47 | 53.72732 | 23.76953 | 0° | 0km/h | 159087m | 0m/s | -37.7°C | 0% | 3.9hPa | 2.2V | 00:00:00 | 00:00:00 | 00:00:00 | |
| AA1-15 | 2026-09-05 00:57:37 | 53.72732 | 23.76953 | 0° | 0km/h | 159087m | 0m/s | -38.2°C | 0% | 4hPa | 2.2V | 00:00:00 | 00:00:00 | 00:00:00 | |
| AA1-15 | 2026-09-05 00:57:26 | 53.72732 | 23.76953 | 0° | 0km/h | 159087m | 0m/s | -38.7°C | 0% | 4.1hPa | 2.2V | 00:00:00 | 00:00:00 | 00:00:00 | |
| AA1-15 | 2026-09-05 00:57:12 | 53.72732 | 23.76953 | 0° | 0km/h | 159087m | 0m/s | -39.3°C | 0% | 4.2hPa | 2.2V | 00:00:00 | 00:00:00 | 00:00:00 | |
| AA1-15 | 2026-09-05 00:56:59 | 53.72732 | 23.76953 | 0° | 0km/h | 159087m | 0m/s | -39.7°C | 0% | 4.2hPa | 2.2V | 00:00:00 | 00:00:00 | 00:00:00 | |
| AA1-15 | 2026-09-05 00:56:47 | 53.72732 | 23.76953 | 0° | 0km/h | 159087m | 0m/s | -39.7°C | 0% | 4.3hPa | 2.2V | 00:00:00 | 00:00:00 | 00:00:00 | |
| AA1-15 | 2026-09-05 00:56:37 | 53.72732 | 23.76953 | 0° | 0km/h | 159087m | 0m/s | -39.9°C | 0% | 4.4hPa | 2.2V | 00:00:00 | 00:00:00 | 00:00:00 | |
| AA1-15 | 2026-09-05 00:56:26 | 53.72732 | 23.76953 | 0° | 0km/h | 159087m | 0m/s | -40.1°C | 0% | 4.5hPa | 2.2V | 00:00:00 | 00:00:00 | 00:00:00 | |
| AA1-15 | 2026-09-05 00:56:16 | 53.72732 | 23.76953 | 0° | 0km/h | 159087m | 0m/s | -40.2°C | 0% | 4.5hPa | 2.2V | 00:00:00 | 00:00:00 | 00:00:00 | |
| AA1-15 | 2026-09-05 00:56:06 | 53.72732 | 23.76953 | 0° | 0km/h | 159087m | 0m/s | -40.7°C | 0% | 4.6hPa | 2.2V | 00:00:00 | 00:00:00 | 00:00:00 | |
| AA1-15 | 2026-09-05 00:55:56 | 53.72732 | 23.76953 | 0° | 0km/h | 159087m | 0m/s | -40.7°C | 0% | 4.7hPa | 2.2V | 00:00:00 | 00:00:00 | 00:00:00 | |
| AA1-15 | 2026-09-05 00:55:45 | 53.72732 | 23.76953 | 0° | 0km/h | 159087m | 0m/s | -40.7°C | 0% | 4.8hPa | 2.2V | 00:00:00 | 00:00:00 | 00:00:00 | |
| AA1-15 | 2026-09-05 00:55:35 | 53.72732 | 23.76953 | 0° | 0km/h | 159087m | 0m/s | -40.8°C | 0% | 4.9hPa | 2.2V | 00:00:00 | 00:00:00 | 00:00:00 | |
| AA1-15 | 2026-09-05 00:55:24 | 53.72732 | 23.76953 | 0° | 0km/h | 159087m | 0m/s | -41°C | 0% | 5hPa | 2.2V | 00:00:00 | 00:00:00 | 00:00:00 | |
| AA1-15 | 2026-09-05 00:55:13 | 53.72732 | 23.76953 | 0° | 0km/h | 159087m | 0m/s | -40.8°C | 0% | 5hPa | 2.2V | 00:00:00 | 00:00:00 | 00:00:00 | |
| AA1-15 | 2026-09-05 00:55:02 | 53.72732 | 23.76953 | 0° | 0km/h | 159087m | 0m/s | -40.7°C | 0% | 5.1hPa | 2.2V | 00:00:00 | 00:00:00 | 00:00:00 | |
| AA1-15 | 2026-09-05 00:54:51 | 53.72732 | 23.76953 | 0° | 0km/h | 159087m | 0m/s | -40.6°C | 0% | 5.2hPa | 2.2V | 00:00:00 | 00:00:00 | 00:00:00 | |
| AA1-15 | 2026-09-05 00:54:36 | 53.72732 | 23.76953 | 0° | 0km/h | 159087m | 0m/s | -40.4°C | 0% | 5.3hPa | 2.2V | 00:00:00 | 00:00:00 | 00:00:00 | |
| AA1-15 | 2026-09-05 00:54:26 | 53.72732 | 23.76953 | 0° | 0km/h | 159087m | 0m/s | -40.4°C | 0% | 5.4hPa | 2.2V | 00:00:00 | 00:00:00 | 00:00:00 | |
| AA1-15 | 2026-09-05 00:54:13 | 53.72732 | 23.76953 | 0° | 0km/h | 159087m | 0m/s | -40.3°C | 0% | 5.5hPa | 2.2V | 00:00:00 | 00:00:00 | 00:00:00 | |
| AA1-15 | 2026-09-05 00:54:02 | 53.72732 | 23.76953 | 0° | 0km/h | 159087m | 0m/s | -40.3°C | 0% | 5.6hPa | 2.2V | 00:00:00 | 00:00:00 | 00:00:00 | |
| AA1-15 | 2026-09-05 00:53:51 | 53.72732 | 23.76953 | 0° | 0km/h | 159087m | 0m/s | -40.6°C | 0% | 5.7hPa | 2.2V | 00:00:00 | 00:00:00 | 00:00:00 | |
| AA1-15 | 2026-09-05 00:53:40 | 53.72732 | 23.76953 | 0° | 0km/h | 159087m | 0m/s | -41.5°C | 0% | 5.7hPa | 2.2V | 00:00:00 | 00:00:00 | 00:00:00 | |
| AA1-15 | 2026-09-05 00:53:28 | 53.72732 | 23.76953 | 0° | 0km/h | 159087m | 0m/s | -41.8°C | 0% | 5.8hPa | 2.2V | 00:00:00 | 00:00:00 | 00:00:00 | |
| AA1-15 | 2026-09-05 00:53:18 | 53.72732 | 23.76953 | 0° | 0km/h | 159087m | 0m/s | -42.2°C | 0% | 6hPa | 2.2V | 00:00:00 | 00:00:00 | 00:00:00 | |
| AA1-15 | 2026-09-05 00:53:06 | 53.72732 | 23.76953 | 0° | 0km/h | 159087m | 0m/s | -43°C | 0% | 6hPa | 2.2V | 00:00:00 | 00:00:00 | 00:00:00 | |
| AA1-15 | 2026-09-05 00:52:54 | 53.72732 | 23.76953 | 0° | 0km/h | 159087m | 0m/s | -43°C | 0% | 6.1hPa | 2.2V | 00:00:00 | 00:00:00 | 00:00:00 | |
| AA1-15 | 2026-09-05 00:52:43 | 53.72732 | 23.76953 | 0° | 0km/h | 159087m | 0m/s | -43.1°C | 0% | 6.2hPa | 2.2V | 00:00:00 | 00:00:00 | 00:00:00 | |
| AA1-15 | 2026-09-05 00:52:31 | 53.72732 | 23.76953 | 0° | 0km/h | 159087m | 0m/s | -43.6°C | 0% | 6.4hPa | 2.2V | 00:00:00 | 00:00:00 | 00:00:00 | |
| AA1-15 | 2026-09-05 00:52:20 | 53.72732 | 23.76953 | 0° | 0km/h | 159087m | 0m/s | -44.4°C | 0% | 6.5hPa | 2.2V | 00:00:00 | 00:00:00 | 00:00:00 | |
| AA1-15 | 2026-09-05 00:52:11 | 53.72732 | 23.76953 | 0° | 0km/h | 159087m | 0m/s | -44.6°C | 0% | 6.5hPa | 2.2V | 00:00:00 | 00:00:00 | 00:00:00 | |
| AA1-15 | 2026-09-05 00:51:59 | 54.87729 | 20.07196 | 0° | 0km/h | 159087m | 0m/s | -44.8°C | 0% | 6.6hPa | 2.2V | 00:00:00 | 00:00:00 | 00:00:00 | |
| AA1-15 | 2026-09-05 00:51:48 | 54.87729 | 20.07196 | 0° | 0km/h | 159087m | 0m/s | -44.6°C | 0% | 6.7hPa | 2.2V | 00:00:00 | 00:00:00 | 00:00:00 | |
| AA1-15 | 2026-09-05 00:51:38 | 54.87729 | 20.07196 | 0° | 0km/h | 159087m | 0m/s | -44.5°C | 0% | 6.8hPa | 2.2V | 00:00:00 | 00:00:00 | 00:00:00 | |
| AA1-15 | 2026-09-05 00:51:28 | 54.87729 | 20.07196 | 0° | 0km/h | 159087m | 0m/s | -44.4°C | 0% | 7hPa | 2.2V | 00:00:00 | 00:00:00 | 00:00:00 | |
| AA1-15 | 2026-09-05 00:51:18 | 54.87729 | 20.07196 | 0° | 0km/h | 159087m | 0m/s | -44.4°C | 0% | 7.1hPa | 2.2V | 00:00:00 | 00:00:00 | 00:00:00 | |
| AA1-15 | 2026-09-05 00:51:07 | 54.87729 | 20.07196 | 0° | 0km/h | 159087m | 0m/s | -44.2°C | 0% | 7.2hPa | 2.2V | 00:00:00 | 00:00:00 | 00:00:00 | |
| AA1-15 | 2026-09-05 00:50:57 | 54.87729 | 20.07196 | 0° | 0km/h | 159087m | 0m/s | -44.1°C | 0% | 7.3hPa | 2.2V | 00:00:00 | 00:00:00 | 00:00:00 | |
| AA1-15 | 2026-09-05 00:50:46 | 54.87729 | 20.07196 | 0° | 0km/h | 159087m | 0m/s | -44.1°C | 0% | 7.4hPa | 2.2V | 00:00:00 | 00:00:00 | 00:00:00 | |
| AA1-15 | 2026-09-05 00:50:35 | 54.87729 | 20.07196 | 0° | 0km/h | 159087m | 0m/s | -44.1°C | 0% | 7.6hPa | 2.2V | 00:00:00 | 00:00:00 | 00:00:00 | |
| AA1-15 | 2026-09-05 00:50:14 | 54.87729 | 20.07196 | 0° | 0km/h | 159087m | 0m/s | -43.8°C | 0% | 7.8hPa | 2.2V | 00:00:00 | 00:00:00 | 00:00:00 | |
| AA1-15 | 2026-09-05 00:50:03 | 54.87729 | 20.07196 | 0° | 0km/h | 159087m | 0m/s | -43.8°C | 0% | 7.8hPa | 2.2V | 00:00:00 | 00:00:00 | 00:00:00 | |
| AA1-15 | 2026-09-05 00:49:52 | 54.87729 | 20.07196 | 0° | 0km/h | 159087m | 0m/s | -43.9°C | 0% | 8hPa | 2.2V | 00:00:00 | 00:00:00 | 00:00:00 | |
| AA1-15 | 2026-09-05 00:49:41 | 54.87729 | 20.07196 | 0° | 0km/h | 159087m | 0m/s | -44°C | 0% | 8.1hPa | 2.2V | 00:00:00 | 00:00:00 | 00:00:00 | |
| AA1-15 | 2026-09-05 00:49:30 | 54.87729 | 20.07196 | 0° | 0km/h | 159087m | 0m/s | -44.3°C | 0% | 8.2hPa | 2.2V | 00:00:00 | 00:00:00 | 00:00:00 | |
| AA1-15 | 2026-09-05 00:49:20 | 54.87729 | 20.07196 | 0° | 0km/h | 159087m | 0m/s | -44.5°C | 0% | 8.4hPa | 2.2V | 00:00:00 | 00:00:00 | 00:00:00 | |
| AA1-15 | 2026-09-05 00:49:05 | 54.87729 | 20.07196 | 0° | 0km/h | 159087m | 0m/s | -45.4°C | 0% | 8.5hPa | 2.2V | 00:00:00 | 00:00:00 | 00:00:00 | |
| AA1-15 | 2026-09-05 00:48:54 | 54.87729 | 20.07196 | 0° | 0km/h | 159087m | 0m/s | -45.7°C | 0% | 8.6hPa | 2.2V | 00:00:00 | 00:00:00 | 00:00:00 | |
| AA1-15 | 2026-09-05 00:48:44 | 54.87729 | 20.07196 | 0° | 0km/h | 159087m | 0m/s | -45.7°C | 0% | 8.8hPa | 2.2V | 00:00:00 | 00:00:00 | 00:00:00 | |
| AA1-15 | 2026-09-05 00:48:34 | 54.87729 | 20.07196 | 0° | 0km/h | 159087m | 0m/s | -45.6°C | 0% | 8.9hPa | 2.2V | 00:00:00 | 00:00:00 | 00:00:00 | |
| AA1-15 | 2026-09-05 00:48:23 | 54.87729 | 20.07196 | 0° | 0km/h | 159087m | 0m/s | -45.6°C | 0% | 9hPa | 2.2V | 00:00:00 | 00:00:00 | 00:00:00 | |
| AA1-15 | 2026-09-05 00:48:12 | 54.87729 | 20.07196 | 0° | 0km/h | 159087m | 0m/s | -45.9°C | 0% | 9.1hPa | 2.2V | 00:00:00 | 00:00:00 | 00:00:00 | |
| AA1-15 | 2026-09-05 00:48:01 | 54.87729 | 20.07196 | 0° | 0km/h | 159087m | 0m/s | -45.8°C | 0% | 9.2hPa | 2.2V | 00:00:00 | 00:00:00 | 00:00:00 | |
| AA1-15 | 2026-09-05 00:47:48 | 54.87729 | 20.07196 | 0° | 0km/h | 159087m | 0m/s | -45.8°C | 0% | 9.4hPa | 2.2V | 00:00:00 | 00:00:00 | 00:00:00 | |
| AA1-15 | 2026-09-05 00:47:33 | 54.87729 | 20.07196 | 0° | 0km/h | 159087m | 0m/s | -45.8°C | 0% | 9.6hPa | 2.2V | 00:00:00 | 00:00:00 | 00:00:00 | |
| AA1-15 | 2026-09-05 00:46:33 | 54.87729 | 20.07196 | 0° | 0km/h | 159087m | 0m/s | -46.6°C | 0% | 10.3hPa | 2.2V | 00:00:00 | 00:00:00 | 00:00:00 | |
| AA1-15 | 2026-09-05 00:46:20 | 54.87729 | 20.07196 | 0° | 0km/h | 159087m | 0m/s | -46.7°C | 0% | 10.5hPa | 2.2V | 00:00:00 | 00:00:00 | 00:00:00 | |
| AA1-15 | 2026-09-05 00:45:41 | 54.87729 | 20.07196 | 0° | 0km/h | 159087m | 0m/s | -47°C | 0% | 11hPa | 2.2V | 00:00:00 | 00:00:00 | 00:00:00 | |
| AA1-15 | 2026-09-05 00:45:30 | 54.87729 | 20.07196 | 0° | 0km/h | 159087m | 0m/s | -46.9°C | 0% | 11.2hPa | 2.2V | 00:00:00 | 00:00:00 | 00:00:00 | |
| AA1-15 | 2026-09-05 00:45:18 | 54.87729 | 20.07196 | 0° | 0km/h | 159087m | 0m/s | -46.8°C | 0% | 11.3hPa | 2.2V | 00:00:00 | 00:00:00 | 00:00:00 | |
| AA1-15 | 2026-09-05 00:45:07 | 54.87729 | 20.07196 | 0° | 0km/h | 159087m | 0m/s | -46.8°C | 0% | 11.5hPa | 2.2V | 00:00:00 | 00:00:00 | 00:00:00 | |
| AA1-15 | 2026-09-05 00:44:56 | 54.87729 | 20.07196 | 0° | 0km/h | 159087m | 0m/s | -46.7°C | 0% | 11.6hPa | 2.2V | 00:00:00 | 00:00:00 | 00:00:00 | |
| AA1-15 | 2026-09-05 00:44:45 | 54.87729 | 20.07196 | 0° | 0km/h | 159087m | 0m/s | -46.9°C | 0% | 11.8hPa | 2.2V | 00:00:00 | 00:00:00 | 00:00:00 | |
| AA1-15 | 2026-09-05 00:44:33 | 54.87729 | 20.07196 | 0° | 0km/h | 159087m | 0m/s | -46.9°C | 0% | 11.9hPa | 2.2V | 00:00:00 | 00:00:00 | 00:00:00 | |
| AA1-15 | 2026-09-05 00:44:23 | 54.87729 | 20.07196 | 0° | 0km/h | 159087m | 0m/s | -47°C | 0% | 12.1hPa | 2.2V | 00:00:00 | 00:00:00 | 00:00:00 | |
| AA1-15 | 2026-09-05 00:44:12 | 54.87729 | 20.07196 | 0° | 0km/h | 159087m | 0m/s | -47.4°C | 0% | 12.2hPa | 2.2V | 00:00:00 | 00:00:00 | 00:00:00 | |
| AA1-15 | 2026-09-05 00:43:54 | 54.87729 | 20.07196 | 0° | 0km/h | 159087m | 0m/s | -48.2°C | 0% | 12.5hPa | 2.2V | 00:00:00 | 00:00:00 | 00:00:00 | |
| AA1-15 | 2026-09-05 00:42:46 | 54.87729 | 20.07196 | 0° | 0km/h | 159087m | 0m/s | -49.7°C | 0% | 13.5hPa | 2.2V | 00:00:00 | 00:00:00 | 00:00:00 | |
| AA1-15 | 2026-09-05 00:42:24 | 54.87729 | 20.07196 | 0° | 0km/h | 159087m | 0m/s | -49.6°C | 0% | 13.8hPa | 2.2V | 00:00:00 | 00:00:00 | 00:00:00 | |
| AA1-15 | 2026-09-05 00:42:11 | 54.87729 | 20.07196 | 0° | 0km/h | 159087m | 0m/s | -49.6°C | 0% | 14hPa | 2.2V | 00:00:00 | 00:00:00 | 00:00:00 | |
| AA1-15 | 2026-09-05 00:41:29 | 54.87729 | 20.07196 | 0° | 0km/h | 159087m | 0m/s | -48.9°C | 0% | 14.7hPa | 2.2V | 00:00:00 | 00:00:00 | 00:00:00 | |
| AA1-15 | 2026-09-05 00:41:17 | 54.87729 | 20.07196 | 0° | 0km/h | 159087m | 0m/s | -48.7°C | 0% | 14.8hPa | 2.2V | 00:00:00 | 00:00:00 | 00:00:00 | |
| AA1-15 | 2026-09-05 00:41:05 | 54.87729 | 20.07196 | 0° | 0km/h | 159087m | 0m/s | -48.7°C | 0% | 15hPa | 2.2V | 00:00:00 | 00:00:00 | 00:00:00 | |
| AA1-15 | 2026-09-05 00:40:53 | 54.87729 | 20.07196 | 0° | 0km/h | 159087m | 0m/s | -48.8°C | 0% | 15.2hPa | 2.2V | 00:00:00 | 00:00:00 | 00:00:00 | |
| AA1-15 | 2026-09-05 00:40:42 | 54.87729 | 20.07196 | 0° | 0km/h | 159087m | 0m/s | -48.7°C | 0% | 15.5hPa | 2.2V | 00:00:00 | 00:00:00 | 00:00:00 | |
| AA1-15 | 2026-09-05 00:40:30 | 54.87729 | 20.07196 | 0° | 0km/h | 159087m | 0m/s | -48.7°C | 0% | 15.6hPa | 2.2V | 00:00:00 | 00:00:00 | 00:00:00 | |
| AA1-15 | 2026-09-05 00:40:18 | 54.87729 | 20.07196 | 0° | 0km/h | 159087m | 0m/s | -48.9°C | 0% | 15.8hPa | 2.2V | 00:00:00 | 00:00:00 | 00:00:00 | |
| AA1-15 | 2026-09-05 00:40:07 | 54.87729 | 20.07196 | 0° | 0km/h | 159087m | 0m/s | -49.1°C | 0% | 16.1hPa | 2.2V | 00:00:00 | 00:00:00 | 00:00:00 | |
| AA1-15 | 2026-09-05 00:39:56 | 54.87729 | 20.07196 | 0° | 0km/h | 159087m | 0m/s | -49.3°C | 0% | 16.2hPa | 2.2V | 00:00:00 | 00:00:00 | 00:00:00 | |
| AA1-15 | 2026-09-05 00:39:45 | 54.87729 | 20.07196 | 0° | 0km/h | 159087m | 0m/s | -49.2°C | 0% | 16.4hPa | 2.2V | 00:00:00 | 00:00:00 | 00:00:00 | |
| AA1-15 | 2026-09-05 00:39:35 | 54.87729 | 20.07196 | 0° | 0km/h | 159087m | 0m/s | -49.1°C | 0% | 16.6hPa | 2.2V | 00:00:00 | 00:00:00 | 00:00:00 | |
| AA1-15 | 2026-09-05 00:39:23 | 54.87729 | 20.07196 | 0° | 0km/h | 159087m | 0m/s | -49°C | 0% | 16.8hPa | 2.2V | 00:00:00 | 00:00:00 | 00:00:00 | |
| AA1-15 | 2026-09-05 00:38:58 | 54.88203 | 20.07078 | 161° | 95km/h | 942m | 8.8m/s | -48.9°C | 0% | 17.2hPa | 2.2V | 00:00:00 | 00:00:00 | 00:00:00 | |
| AA1-15 | 2026-09-05 00:37:57 | 54.74308 | 19.70906 | 0° | 0km/h | 159087m | 0m/s | -48.9°C | 0% | 18.4hPa | 2.2V | 00:00:00 | 00:00:00 | 00:00:00 | |
| AA1-15 | 2026-09-05 00:37:22 | 54.74308 | 19.70906 | 0° | 0km/h | 159087m | 0m/s | -49°C | 0% | 19hPa | 2.2V | 00:00:00 | 00:00:00 | 00:00:00 | |
| AA1-15 | 2026-09-05 00:37:12 | 54.74308 | 19.70906 | 0° | 0km/h | 159087m | 0m/s | -49°C | 0% | 19.2hPa | 2.2V | 00:00:00 | 00:00:00 | 00:00:00 | |
| AA1-15 | 2026-09-05 00:37:00 | 54.74308 | 19.70906 | 0° | 0km/h | 159087m | 0m/s | -48.9°C | 0% | 19.5hPa | 2.2V | 00:00:00 | 00:00:00 | 00:00:00 | |
| AA1-15 | 2026-09-05 00:36:50 | 54.74305 | 19.70932 | 282° | 15km/h | 159087m | 6.2m/s | -48.9°C | 0% | 19.7hPa | 2.2V | 00:00:00 | 00:00:00 | 00:00:00 | |
| AA1-15 | 2026-09-05 00:35:14 | 54.74371 | 19.71515 | 258° | 18km/h | 2481m | 6.2m/s | -49.9°C | 0% | 21.7hPa | 2.2V | 00:00:00 | 00:00:00 | 00:00:00 | |
| AA1-15 | 2026-09-05 00:35:03 | 54.74384 | 19.71572 | 268° | 15km/h | 2489m | 6.4m/s | -50.1°C | 0% | 21.9hPa | 2.2V | 00:00:00 | 00:00:00 | 00:00:00 | |
| AA1-15 | 2026-09-05 00:34:52 | 54.74426 | 19.71865 | 242° | 97km/h | 2481m | 8.8m/s | -50°C | 0% | 22.2hPa | 2.2V | 00:00:00 | 00:00:00 | 00:00:00 | |
| AA1-15 | 2026-09-05 00:34:41 | 54.74661 | 19.72112 | 177° | 89km/h | 2442m | 9.2m/s | -50.1°C | 0% | 22.4hPa | 2.2V | 00:00:00 | 00:00:00 | 00:00:00 | |
| AA1-15 | 2026-09-05 00:34:29 | 54.74845 | 19.71770 | 105° | 97km/h | 2279m | 7.4m/s | -50.1°C | 0% | 22.7hPa | 2.2V | 00:00:00 | 00:00:00 | 00:00:00 | |
| AA1-15 | 2026-09-05 00:34:18 | 52.80212 | 19.35702 | 132° | 192km/h | 159087m | 143m/s | -50.2°C | 0% | 22.9hPa | 2.2V | 00:00:00 | 00:00:00 | 00:00:00 | |
| AA1-15 | 2026-09-05 00:34:06 | 52.80599 | 19.34999 | 135° | 199km/h | 54822m | 143.7m/s | -50.3°C | 0% | 23.2hPa | 2.2V | 00:00:00 | 00:00:00 | 00:00:00 | |
| AA1-15 | 2026-09-05 00:33:54 | 54.87238 | 20.17036 | 0° | 0km/h | 159087m | 0m/s | -50.4°C | 0% | 23.5hPa | 2.2V | 00:00:00 | 00:00:00 | 00:00:00 | |
| AA1-15 | 2026-09-05 00:33:16 | 54.87238 | 20.17036 | 0° | 0km/h | 159087m | 0m/s | -50.6°C | 0% | 24.4hPa | 2.2V | 00:00:00 | 00:00:00 | 00:00:00 | |
| AA1-15 | 2026-09-05 00:32:58 | 54.87307 | 20.16968 | 270° | 13km/h | 2640m | 8.2m/s | -51°C | 0% | 24.8hPa | 2.2V | 00:00:00 | 00:00:00 | 00:00:00 | |
| AA1-15 | 2026-09-05 00:32:45 | 54.87676 | 20.17691 | 272° | 15km/h | 159087m | 6.6m/s | -51°C | 0% | 25.1hPa | 2.2V | 00:00:00 | 00:00:00 | 00:00:00 | |
| AA1-15 | 2026-09-05 00:32:28 | 54.87692 | 20.17744 | 312° | 18km/h | 1873m | 8.3m/s | -51.4°C | 0% | 25.6hPa | 2.2V | 00:00:00 | 00:00:00 | 00:00:00 | |
| AA1-15 | 2026-09-05 00:32:23 | 54.87483 | 20.18065 | 245° | 49km/h | 1974m | 25.3m/s | -51.5°C | 0% | 25.7hPa | 2.2V | 00:00:00 | 00:00:00 | 00:00:00 | |
| AA1-15 | 2026-09-05 00:32:21 | 54.87481 | 20.18081 | 234° | 66km/h | 1952m | 24.2m/s | -51.5°C | 0% | 25.8hPa | 2.2V | 00:00:00 | 00:00:00 | 00:00:00 | |
| AA1-15 | 2026-09-05 00:32:20 | 54.87489 | 20.18071 | 216° | 29km/h | 1910m | 15.1m/s | -51.5°C | 0% | 25.8hPa | 2.2V | 00:00:00 | 00:00:00 | 00:00:00 | |
| AA1-15 | 2026-09-05 00:31:48 | 54.87576 | 20.18555 | 271° | 18km/h | 479m | 10.2m/s | -51.6°C | 0% | 26.6hPa | 2.2V | 00:00:00 | 00:00:00 | 00:00:00 | |
| AA1-15 | 2026-09-05 00:30:14 | 56.86921 | 20.67376 | 217° | 677km/h | 159087m | 167.7m/s | -51.8°C | 0% | 29.2hPa | 2.2V | 00:00:00 | 00:00:00 | 00:00:00 | |
| AA1-15 | 2026-09-05 00:29:47 | 55.79491 | 18.85466 | 43° | 1451km/h | 159087m | -238.8m/s | -52°C | 0% | 29.9hPa | 2.2V | 00:00:00 | 00:00:00 | 00:00:00 | |
| AA1-15 | 2026-09-05 00:29:35 | 55.79491 | 18.85466 | 43° | 1451km/h | 159087m | -238.8m/s | -51.9°C | 0% | 30.3hPa | 2.2V | 00:00:00 | 00:00:00 | 00:00:00 | |
| AA1-15 | 2026-09-05 00:29:25 | 55.79491 | 18.85466 | 43° | 1451km/h | 159087m | -238.8m/s | -51.7°C | 0% | 30.6hPa | 2.2V | 00:00:00 | 00:00:00 | 00:00:00 | |
| AA1-15 | 2026-09-05 00:29:12 | 55.01170 | 20.04840 | 0° | 0km/h | 159087m | 0m/s | -51.7°C | 0% | 31hPa | 2.2V | 00:00:00 | 00:00:00 | 00:00:00 | |
| AA1-15 | 2026-09-05 00:29:02 | 55.01170 | 20.04840 | 0° | 0km/h | 159087m | 0m/s | -51.6°C | 0% | 31.3hPa | 2.2V | 00:00:00 | 00:00:00 | 00:00:00 | |
| AA1-15 | 2026-09-05 00:28:51 | 54.92269 | 19.89521 | 228° | 9km/h | 159087m | 11.3m/s | -51.5°C | 0% | 31.6hPa | 2.2V | 00:00:00 | 00:00:00 | 00:00:00 | |
| AA1-15 | 2026-09-05 00:28:40 | 54.92269 | 19.89521 | 228° | 9km/h | 159087m | 11.3m/s | -51.8°C | 0% | 31.9hPa | 2.2V | 00:00:00 | 00:00:00 | 00:00:00 | |
| AA1-15 | 2026-09-05 00:28:29 | 54.92171 | 19.89635 | 273° | 15km/h | 2281m | 7.7m/s | -51.9°C | 0% | 32.2hPa | 2.2V | 00:00:00 | 00:00:00 | 00:00:00 | |
| AA1-15 | 2026-09-05 00:28:18 | 54.92141 | 19.89773 | 225° | 11km/h | 2205m | 13.6m/s | -51.8°C | 0% | 32.5hPa | 2.2V | 00:00:00 | 00:00:00 | 00:00:00 | |
| AA1-15 | 2026-09-05 00:28:08 | 54.92161 | 19.89853 | 272° | 13km/h | 2122m | 8.5m/s | -51.9°C | 0% | 32.9hPa | 2.2V | 00:00:00 | 00:00:00 | 00:00:00 | |
| AA1-15 | 2026-09-05 00:27:58 | 54.92160 | 19.89952 | 270° | 13km/h | 1979m | 8.5m/s | -52°C | 0% | 33.2hPa | 2.2V | 00:00:00 | 00:00:00 | 00:00:00 | |
| AA1-15 | 2026-09-05 00:27:55 | 54.92160 | 19.89962 | 273° | 15km/h | 1961m | 8.1m/s | -52°C | 0% | 33.3hPa | 2.2V | 00:00:00 | 00:00:00 | 00:00:00 | |
| AA1-15 | 2026-09-05 00:27:54 | 54.92159 | 19.89972 | 276° | 13km/h | 1943m | 8.7m/s | -52°C | 0% | 33.3hPa | 2.2V | 00:00:00 | 00:00:00 | 00:00:00 | |
| AA1-15 | 2026-09-05 00:27:53 | 54.92156 | 19.89979 | 268° | 15km/h | 1931m | 8.6m/s | -52°C | 0% | 33.3hPa | 2.2V | 00:00:00 | 00:00:00 | 00:00:00 | |
| AA1-15 | 2026-09-05 00:27:51 | 54.92155 | 19.89997 | 267° | 13km/h | 1925m | 8m/s | -52°C | 0% | 33.4hPa | 2.2V | 00:00:00 | 00:00:00 | 00:00:00 | |
| AA1-15 | 2026-09-05 00:27:48 | 54.92156 | 19.90028 | 264° | 16km/h | 1932m | 8.3m/s | -52°C | 0% | 33.4hPa | 2.2V | 00:00:00 | 00:00:00 | 00:00:00 | |
| AA1-15 | 2026-09-05 00:27:46 | 54.92154 | 19.90050 | 273° | 16km/h | 1943m | 8.4m/s | -52°C | 0% | 33.5hPa | 2.2V | 00:00:00 | 00:00:00 | 00:00:00 | |
| AA1-15 | 2026-09-05 00:27:44 | 54.92146 | 19.90073 | 269° | 18km/h | 1954m | 7.9m/s | -52°C | 0% | 33.6hPa | 2.2V | 00:00:00 | 00:00:00 | 00:00:00 | |
| AA1-15 | 2026-09-05 00:27:42 | 54.92129 | 19.90105 | 272° | 15km/h | 1970m | 9.2m/s | -52.1°C | 0% | 33.6hPa | 2.2V | 00:00:00 | 00:00:00 | 00:00:00 | |
| AA1-15 | 2026-09-05 00:27:41 | 54.92125 | 19.90114 | 269° | 13km/h | 1968m | 9.3m/s | -52.1°C | 0% | 33.6hPa | 2.2V | 00:00:00 | 00:00:00 | 00:00:00 | |
| AA1-15 | 2026-09-05 00:27:39 | 54.92123 | 19.90120 | 269° | 13km/h | 1955m | 8m/s | -52.1°C | 0% | 33.7hPa | 2.2V | 00:00:00 | 00:00:00 | 00:00:00 | |
| AA1-15 | 2026-09-05 00:27:37 | 54.92112 | 19.90154 | 265° | 13km/h | 1970m | 8.1m/s | -52.2°C | 0% | 33.8hPa | 2.2V | 00:00:00 | 00:00:00 | 00:00:00 | |
| AA1-15 | 2026-09-05 00:27:36 | 54.92111 | 19.90171 | 269° | 15km/h | 1980m | 8.5m/s | -52.3°C | 0% | 33.8hPa | 2.2V | 00:00:00 | 00:00:00 | 00:00:00 | |
| AA1-15 | 2026-09-05 00:27:34 | 54.92107 | 19.90207 | 270° | 16km/h | 1972m | 8.3m/s | -52.3°C | 0% | 33.9hPa | 2.2V | 00:00:00 | 00:00:00 | 00:00:00 | |
| AA1-15 | 2026-09-05 00:27:31 | 54.92103 | 19.90220 | 287° | 15km/h | 1944m | 12.5m/s | -52.4°C | 0% | 34hPa | 2.2V | 00:00:00 | 00:00:00 | 00:00:00 | |
| AA1-15 | 2026-09-05 00:27:30 | 54.92097 | 19.90225 | 304° | 11km/h | 1921m | 14.3m/s | -52.5°C | 0% | 34hPa | 2.2V | 00:00:00 | 00:00:00 | 00:00:00 | |
| AA1-15 | 2026-09-05 00:27:27 | 54.92076 | 19.90236 | 270° | 16km/h | 1851m | 10.9m/s | -52.7°C | 0% | 34.1hPa | 2.2V | 00:00:00 | 00:00:00 | 00:00:00 | |
| AA1-15 | 2026-09-05 00:27:26 | 54.92065 | 19.90249 | 275° | 15km/h | 1817m | 8.3m/s | -52.9°C | 0% | 34.1hPa | 2.2V | 00:00:00 | 00:00:00 | 00:00:00 | |
| AA1-15 | 2026-09-05 00:27:24 | 54.92062 | 19.90255 | 264° | 11km/h | 1804m | 9m/s | -53°C | 0% | 34.2hPa | 2.2V | 00:00:00 | 00:00:00 | 00:00:00 | |
| AA1-15 | 2026-09-05 00:27:23 | 54.92062 | 19.90269 | 274° | 13km/h | 1793m | 7.4m/s | -53°C | 0% | 34.2hPa | 2.2V | 00:00:00 | 00:00:00 | 00:00:00 | |
| AA1-15 | 2026-09-05 00:27:21 | 54.92063 | 19.90276 | 275° | 15km/h | 1790m | 7.8m/s | -53°C | 0% | 34.3hPa | 2.2V | 00:00:00 | 00:00:00 | 00:00:00 | |
| AA1-15 | 2026-09-05 00:27:13 | 54.92079 | 19.90325 | 262° | 15km/h | 1727m | 9.8m/s | -53.1°C | 0% | 34.5hPa | 2.2V | 00:00:00 | 00:00:00 | 00:00:00 | |
| AA1-15 | 2026-09-05 00:27:12 | 54.92087 | 19.90321 | 261° | 20km/h | 1714m | 11.4m/s | -53.1°C | 0% | 34.5hPa | 2.2V | 00:00:00 | 00:00:00 | 00:00:00 | |
| AA1-15 | 2026-09-05 00:27:09 | 54.92115 | 19.90297 | 249° | 7km/h | 1657m | 11.4m/s | -53°C | 0% | 34.6hPa | 2.2V | 00:00:00 | 00:00:00 | 00:00:00 | |
| AA1-15 | 2026-09-05 00:27:08 | 54.92114 | 19.90299 | 247° | 13km/h | 1641m | 11m/s | -53°C | 0% | 34.7hPa | 2.2V | 00:00:00 | 00:00:00 | 00:00:00 | |
| AA1-15 | 2026-09-05 00:27:06 | 54.92102 | 19.90318 | 263° | 13km/h | 1613m | 9.9m/s | -53°C | 0% | 34.8hPa | 2.2V | 00:00:00 | 00:00:00 | 00:00:00 | |
| AA1-15 | 2026-09-05 00:27:03 | 54.92099 | 19.90371 | 268° | 95km/h | 1571m | 9.5m/s | -52.9°C | 0% | 34.8hPa | 2.2V | 00:00:00 | 00:00:00 | 00:00:00 | |
| AA1-15 | 2026-09-05 00:27:02 | 54.92090 | 19.90411 | 260° | 95km/h | 1567m | 9m/s | -52.9°C | 0% | 34.9hPa | 2.2V | 00:00:00 | 00:00:00 | 00:00:00 | |
| AA1-15 | 2026-09-05 00:27:00 | 54.92090 | 19.90478 | 249° | 95km/h | 1547m | 8.3m/s | -52.8°C | 0% | 35hPa | 2.2V | 00:00:00 | 00:00:00 | 00:00:00 | |
| AA1-15 | 2026-09-05 00:26:58 | 54.92152 | 19.90608 | 233° | 95km/h | 1575m | 7.5m/s | -52.8°C | 0% | 35hPa | 2.2V | 00:00:00 | 00:00:00 | 00:00:00 | |
| AA1-15 | 2026-09-05 00:26:37 | 54.66848 | 20.47157 | 0° | 0km/h | 159087m | 0m/s | -52.4°C | 0% | 35.7hPa | 2.2V | 00:00:00 | 00:00:00 | 00:00:00 | |
| AA1-15 | 2026-09-05 00:26:26 | 54.66848 | 20.47157 | 0° | 0km/h | 159087m | 0m/s | -52°C | 0% | 36hPa | 2.2V | 00:00:00 | 00:00:00 | 00:00:00 | |
| AA1-15 | 2026-09-05 00:26:16 | 54.66848 | 20.47157 | 0° | 0km/h | 159087m | 0m/s | -51.6°C | 0% | 36.4hPa | 2.2V | 00:00:00 | 00:00:00 | 00:00:00 | |
| AA1-15 | 2026-09-05 00:26:05 | 54.66848 | 20.47157 | 0° | 0km/h | 159087m | 0m/s | -51.4°C | 0% | 36.7hPa | 2.2V | 00:00:00 | 00:00:00 | 00:00:00 | |
| AA1-15 | 2026-09-05 00:25:55 | 54.66848 | 20.47157 | 0° | 0km/h | 159087m | 0m/s | -51.3°C | 0% | 37hPa | 2.2V | 00:00:00 | 00:00:00 | 00:00:00 | |
| AA1-15 | 2026-09-05 00:25:44 | 54.66848 | 20.47157 | 0° | 0km/h | 159087m | 0m/s | -51.4°C | 0% | 37.4hPa | 2.2V | 00:00:00 | 00:00:00 | 00:00:00 | |
| AA1-15 | 2026-09-05 00:25:34 | 54.66848 | 20.47157 | 0° | 0km/h | 159087m | 0m/s | -51.1°C | 0% | 37.8hPa | 2.2V | 00:00:00 | 00:00:00 | 00:00:00 | |
| AA1-15 | 2026-09-05 00:25:24 | 54.66848 | 20.47157 | 0° | 0km/h | 159087m | 0m/s | -51.1°C | 0% | 38.1hPa | 2.2V | 00:00:00 | 00:00:00 | 00:00:00 | |
| AA1-15 | 2026-09-05 00:25:12 | 54.66848 | 20.47157 | 0° | 0km/h | 159087m | 0m/s | -51.4°C | 0% | 38.5hPa | 2.2V | 00:00:00 | 00:00:00 | 00:00:00 | |
| AA1-15 | 2026-09-05 00:25:01 | 54.66848 | 20.47157 | 0° | 0km/h | 159087m | 0m/s | -51°C | 0% | 38.9hPa | 2.2V | 00:00:00 | 00:00:00 | 00:00:00 | |
| AA1-15 | 2026-09-05 00:24:50 | 54.66848 | 20.47157 | 0° | 0km/h | 159087m | 0m/s | -50.5°C | 0% | 39.3hPa | 2.2V | 00:00:00 | 00:00:00 | 00:00:00 | |
| AA1-15 | 2026-09-05 00:24:40 | 54.66848 | 20.47157 | 0° | 0km/h | 159087m | 0m/s | -50.5°C | 0% | 39.7hPa | 2.2V | 00:00:00 | 00:00:00 | 00:00:00 | |
| AA1-15 | 2026-09-05 00:24:29 | 54.66848 | 20.47157 | 0° | 0km/h | 159087m | 0m/s | -50.5°C | 0% | 40hPa | 2.2V | 00:00:00 | 00:00:00 | 00:00:00 | |
| AA1-15 | 2026-09-05 00:24:19 | 54.66848 | 20.47157 | 0° | 0km/h | 159087m | 0m/s | -50.9°C | 0% | 40.4hPa | 2.2V | 00:00:00 | 00:00:00 | 00:00:00 | |
| AA1-15 | 2026-09-05 00:24:09 | 54.67612 | 20.46674 | 160° | 358km/h | 159087m | -71.7m/s | -51°C | 0% | 40.8hPa | 2.2V | 00:00:00 | 00:00:00 | 00:00:00 | |
| AA1-15 | 2026-09-05 00:23:57 | 54.68124 | 20.46402 | 359° | 7km/h | 2686m | 7m/s | -50.9°C | 0% | 41.2hPa | 2.2V | 00:00:00 | 00:00:00 | 00:00:00 | |
| AA1-15 | 2026-09-05 00:23:46 | 54.67452 | 20.46234 | 244° | 20km/h | 1297m | -17.2m/s | -51.2°C | 0% | 41.6hPa | 2.2V | 00:00:00 | 00:00:00 | 00:00:00 | |
| AA1-15 | 2026-09-05 00:23:44 | 54.67466 | 20.46247 | 3° | 11km/h | 1380m | 7.7m/s | -51.1°C | 0% | 41.7hPa | 2.2V | 00:00:00 | 00:00:00 | 00:00:00 | |
| AA1-15 | 2026-09-05 00:23:43 | 54.67462 | 20.46246 | 358° | 11km/h | 1373m | 6.9m/s | -51.1°C | 0% | 41.7hPa | 2.2V | 00:00:00 | 00:00:00 | 00:00:00 | |
| AA1-15 | 2026-09-05 00:23:13 | 54.67304 | 20.46232 | 346° | 9km/h | 970m | 5.9m/s | -51.3°C | 0% | 42.9hPa | 2.2V | 00:00:00 | 00:00:00 | 00:00:00 | |
| AA1-15 | 2026-09-05 00:23:11 | 54.67294 | 20.46228 | 237° | 5km/h | 932m | -2.1m/s | -51.5°C | 0% | 43hPa | 2.2V | 00:00:00 | 00:00:00 | 00:00:00 | |
| AA1-15 | 2026-09-05 00:22:59 | 54.67342 | 20.46260 | 4° | 13km/h | 1098m | 9.6m/s | -52.3°C | 0% | 43.4hPa | 2.2V | 00:00:00 | 00:00:00 | 00:00:00 | |
| AA1-15 | 2026-09-05 00:22:54 | 54.67229 | 20.46261 | 355° | 100km/h | 1027m | 8.3m/s | -52.6°C | 0% | 43.6hPa | 2.2V | 00:00:00 | 00:00:00 | 00:00:00 | |
| AA1-15 | 2026-09-05 00:22:52 | 54.67182 | 20.46267 | 352° | 95km/h | 1006m | 8.3m/s | -52.8°C | 0% | 43.7hPa | 2.2V | 00:00:00 | 00:00:00 | 00:00:00 | |
| AA1-15 | 2026-09-05 00:22:50 | 54.67137 | 20.46276 | 347° | 93km/h | 982m | 8.3m/s | -53°C | 0% | 43.8hPa | 2.2V | 00:00:00 | 00:00:00 | 00:00:00 | |
| AA1-15 | 2026-09-05 00:22:49 | 54.67115 | 20.46282 | 344° | 95km/h | 968m | 7.1m/s | -53.1°C | 0% | 43.8hPa | 2.2V | 00:00:00 | 00:00:00 | 00:00:00 | |
| AA1-15 | 2026-09-05 00:22:47 | 54.67076 | 20.46302 | 351° | 100km/h | 958m | 21.8m/s | -53.4°C | 0% | 43.9hPa | 2.2V | 00:00:00 | 00:00:00 | 00:00:00 | |
| AA1-15 | 2026-09-05 00:22:44 | 54.67010 | 20.46332 | 340° | 99km/h | 920m | 8.4m/s | -53.6°C | 0% | 44hPa | 2.2V | 00:00:00 | 00:00:00 | 00:00:00 | |
| AA1-15 | 2026-09-05 00:22:39 | 54.66894 | 20.46417 | 331° | 95km/h | 873m | 8.7m/s | -53.6°C | 0% | 44.1hPa | 2.2V | 00:00:00 | 00:00:00 | 00:00:00 | |
| AA1-15 | 2026-09-05 00:22:34 | 54.66781 | 20.46559 | 328° | 97km/h | 79543m | 8.2m/s | -53.5°C | 0% | 44.4hPa | 2.2V | 00:00:00 | 00:00:00 | 00:00:00 | |
| AA1-15 | 2026-09-05 00:22:19 | 54.66536 | 20.47014 | 303° | 100km/h | 696m | 9.1m/s | -52.9°C | 0% | 44.9hPa | 2.2V | 00:00:00 | 00:00:00 | 00:00:00 | |
| AA1-15 | 2026-09-05 00:19:46 | 54.38544 | 21.46021 | 0° | 0km/h | 159087m | 0m/s | -52.8°C | 0% | 51.1hPa | 2.2V | 00:00:00 | 00:00:00 | 00:00:00 |